Terminal Aerodrome Forecast
Issued by NWS Sioux Falls, SD

Home | Current Version | Previous Version | Text Only | Print | Product List | Glossary On
Versions: 1 2 3 4 5 6 7 8 9 10 11 12 13 14
000
FTUS43 KFSD 160500
TAFHON
TAF
KHON 160520Z 1606/1706 11017G25KT P6SM OVC100
     FM161000 08012KT P6SM SCT040 OVC070
     FM161300 04012KT P6SM SCT015 OVC040
     FM161500 01017G24KT 3SM -SN OVC015
      TEMPO 1615/1616 6SM -RASN
     FM161900 35021G30KT P6SM BKN025
     FM170130 36014KT P6SM SCT025=

USA.gov is the U.S. government's official web portal to all federal, state and local government web resources and services.